Time;durP1;ratioP1;P1;durP2;ratioP2;P2;SDS_P1;SDS_P2;PMS_P1;PMS_P2;Temp;Humidity;BMP_temperature;BMP_pressure;BME280_temperature;BME280_humidity;BME280_pressure;Samples;Min_cycle;Max_cycle;Signal;HPM_P1;HPM_P2
2022/04/03 00:01:46;;;;;;;8.50;4.30;;;;;;;-0.78;62.89;99609.36;130460;1268;98422;-73
2022/04/03 00:04:49;;;;;;;9.00;4.80;;;;;;;-0.82;63.07;99610.70;130452;1266;98493;-73
2022/04/03 00:07:52;;;;;;;9.90;4.50;;;;;;;-0.87;63.13;99611.14;130431;1268;98061;-72
2022/04/03 00:10:55;;;;;;;9.50;4.60;;;;;;;-0.90;63.06;99612.41;130439;1267;99175;-71
2022/04/03 00:13:57;;;;;;;12.50;4.50;;;;;;;-0.93;63.17;99611.40;130430;1268;99191;-72
2022/04/03 00:17:00;;;;;;;8.90;4.20;;;;;;;-0.92;63.10;99612.55;130240;1268;122062;-73
2022/04/03 00:20:04;;;;;;;9.10;3.90;;;;;;;-0.88;63.59;99610.30;130344;1268;98999;-71
2022/04/03 00:23:07;;;;;;;9.50;3.90;;;;;;;-0.82;62.82;99611.02;130332;1268;173159;-74
2022/04/03 00:26:09;;;;;;;8.30;3.90;;;;;;;-0.77;62.86;99610.91;130497;1268;97984;-73
2022/04/03 00:29:12;;;;;;;6.00;3.80;;;;;;;-0.75;63.17;99611.48;130459;1266;99053;-73
2022/04/03 00:32:15;;;;;;;10.20;4.10;;;;;;;-0.74;63.21;99611.77;130405;1268;99169;-74
2022/04/03 00:35:20;;;;;;;6.60;3.70;;;;;;;-0.77;63.29;99612.83;130450;1267;97984;-74
2022/04/03 00:38:22;;;;;;;8.70;3.80;;;;;;;-0.78;62.87;99609.94;130492;1268;97981;-73
2022/04/03 00:41:25;;;;;;;8.40;3.80;;;;;;;-0.85;63.09;99612.92;130425;1268;99041;-71
2022/04/03 00:44:29;;;;;;;6.60;4.00;;;;;;;-0.92;63.64;99619.48;130437;1268;98890;-74
2022/04/03 00:47:32;;;;;;;7.30;3.50;;;;;;;-0.97;63.08;99618.59;130481;1268;98773;-73
2022/04/03 00:50:35;;;;;;;7.50;3.80;;;;;;;-1.01;63.85;99620.78;130492;1268;97990;-75
2022/04/03 00:53:38;;;;;;;7.90;4.00;;;;;;;-1.07;64.20;99621.87;130574;1268;98014;-75
2022/04/03 00:56:41;;;;;;;7.40;3.80;;;;;;;-1.09;63.92;99620.06;130604;1268;98355;-72
2022/04/03 00:59:44;;;;;;;8.00;4.00;;;;;;;-1.14;64.72;99616.85;130549;1268;98841;-74
2022/04/03 01:02:47;;;;;;;8.10;4.10;;;;;;;-1.21;64.77;99618.50;130589;1266;98058;-75
2022/04/03 01:05:49;;;;;;;12.50;4.20;;;;;;;-1.26;65.47;99616.02;130572;1267;97988;-74
2022/04/03 01:08:52;;;;;;;6.40;3.10;;;;;;;-1.26;64.24;99612.71;130536;1268;99060;-74
2022/04/03 01:11:56;;;;;;;8.20;3.70;;;;;;;-1.23;64.57;99610.20;130532;1268;99168;-74
2022/04/03 01:14:59;;;;;;;8.00;4.30;;;;;;;-1.17;64.38;99614.23;130634;1268;97975;-75
2022/04/03 01:18:01;;;;;;;10.40;4.60;;;;;;;-1.17;64.90;99611.64;130610;1268;99231;-75
2022/04/03 01:21:04;;;;;;;8.90;4.10;;;;;;;-1.19;64.82;99610.36;130494;1268;97982;-75
2022/04/03 01:24:18;;;;;;;10.90;4.50;;;;;;;-1.24;64.71;99613.41;130622;1268;99191;-74
2022/04/03 01:27:21;;;;;;;7.30;4.20;;;;;;;-1.27;64.83;99612.06;130615;1268;98734;-74
2022/04/03 01:30:24;;;;;;;9.40;4.30;;;;;;;-1.30;65.15;99612.61;130528;1266;99149;-74
2022/04/03 01:33:27;;;;;;;8.70;4.10;;;;;;;-1.36;65.16;99613.30;130461;1268;97988;-73
2022/04/03 01:36:29;;;;;;;9.50;4.10;;;;;;;-1.41;64.63;99612.02;130445;1267;98730;-73
2022/04/03 01:39:32;;;;;;;9.10;4.20;;;;;;;-1.43;64.70;99611.98;130482;1268;99156;-75
2022/04/03 01:42:35;;;;;;;8.80;4.30;;;;;;;-1.47;65.52;99613.63;130500;1268;97985;-75
2022/04/03 01:45:39;;;;;;;8.50;4.40;;;;;;;-1.53;65.15;99619.89;130485;1268;99148;-71
2022/04/03 01:48:41;;;;;;;8.80;3.50;;;;;;;-1.56;65.21;99623.23;130491;1268;99071;-72
2022/04/03 01:51:44;;;;;;;8.70;4.10;;;;;;;-1.56;64.92;99625.35;130511;1268;97941;-74
2022/04/03 01:54:47;;;;;;;9.30;3.80;;;;;;;-1.52;65.20;99628.05;130469;1268;98550;-72
2022/04/03 01:57:49;;;;;;;10.30;4.10;;;;;;;-1.46;65.70;99629.80;130447;1268;99150;-73
2022/04/03 02:00:52;;;;;;;9.80;4.20;;;;;;;-1.43;65.69;99633.62;130434;1268;99165;-73
2022/04/03 02:03:55;;;;;;;7.80;3.80;;;;;;;-1.42;65.76;99635.30;130577;1268;98049;-74
2022/04/03 02:06:58;;;;;;;10.80;4.50;;;;;;;-1.44;65.95;99634.41;130442;1268;98763;-73
2022/04/03 02:10:00;;;;;;;8.70;4.10;;;;;;;-1.48;65.32;99639.50;130425;1268;98003;-72
2022/04/03 02:13:03;;;;;;;9.10;4.80;;;;;;;-1.54;66.01;99640.54;130285;1268;97957;-71
2022/04/03 02:16:06;;;;;;;9.60;4.20;;;;;;;-1.59;66.00;99644.52;130366;1268;112295;-72
2022/04/03 02:19:09;;;;;;;11.00;4.30;;;;;;;-1.65;65.96;99644.84;130414;1268;98051;-73
2022/04/03 02:22:11;;;;;;;9.20;4.20;;;;;;;-1.69;65.90;99647.37;130380;1268;98001;-73
2022/04/03 02:25:14;;;;;;;8.10;4.40;;;;;;;-1.74;66.43;99651.16;130438;1268;99162;-74
2022/04/03 02:28:17;;;;;;;8.60;4.10;;;;;;;-1.82;66.93;99656.68;130406;1267;99159;-72
2022/04/03 02:31:20;;;;;;;8.20;4.10;;;;;;;-1.86;66.09;99655.65;130446;1268;97968;-72
2022/04/03 02:34:23;;;;;;;8.10;4.10;;;;;;;-1.84;66.17;99652.27;130432;1268;99625;-74
2022/04/03 02:37:25;;;;;;;6.80;3.50;;;;;;;-1.81;66.01;99651.38;130400;1268;99068;-74
2022/04/03 02:40:28;;;;;;;8.70;4.00;;;;;;;-1.78;66.22;99652.60;130431;1268;97968;-72
2022/04/03 02:43:31;;;;;;;7.90;3.70;;;;;;;-1.79;66.28;99651.42;130461;1268;98639;-73
2022/04/03 02:46:34;;;;;;;7.20;4.20;;;;;;;-1.81;66.68;99656.26;130441;1268;97967;-73
2022/04/03 02:49:37;;;;;;;7.80;3.90;;;;;;;-1.84;66.43;99655.05;130469;1267;97955;-72
2022/04/03 02:52:40;;;;;;;7.60;3.70;;;;;;;-1.87;66.35;99655.40;130448;1268;99043;-72
2022/04/03 02:55:43;;;;;;;9.10;4.00;;;;;;;-1.92;66.99;99658.48;130527;1268;99263;-73
2022/04/03 02:58:45;;;;;;;8.70;4.00;;;;;;;-1.97;66.48;99657.51;130602;1268;98074;-72
2022/04/03 03:01:48;;;;;;;7.50;3.90;;;;;;;-2.02;66.82;99660.96;130678;1267;99057;-72
2022/04/03 03:04:51;;;;;;;8.70;4.00;;;;;;;-2.07;66.86;99661.22;130449;1268;108545;-72
2022/04/03 03:07:54;;;;;;;7.20;3.90;;;;;;;-2.11;66.30;99666.16;130458;1268;99171;-73
2022/04/03 03:10:56;;;;;;;7.50;3.70;;;;;;;-2.12;67.05;99672.30;130431;1267;99201;-72
2022/04/03 03:14:00;;;;;;;9.30;3.60;;;;;;;-2.09;66.76;99673.88;130420;1267;97975;-73
2022/04/03 03:17:03;;;;;;;8.10;3.90;;;;;;;-2.03;66.79;99672.51;130606;1268;99195;-73
2022/04/03 03:20:08;;;;;;;8.30;3.90;;;;;;;-1.99;66.58;99675.41;130562;1267;97960;-74
2022/04/03 03:23:10;;;;;;;7.80;4.00;;;;;;;-2.01;66.88;99676.75;130595;1268;108675;-73
2022/04/03 03:26:13;;;;;;;8.30;3.90;;;;;;;-2.03;67.19;99674.92;130588;1268;99142;-72
2022/04/03 03:29:16;;;;;;;8.50;3.90;;;;;;;-2.05;66.67;99679.27;130258;1268;98035;-74
2022/04/03 03:32:19;;;;;;;7.60;3.90;;;;;;;-2.09;66.93;99677.75;130641;1268;98736;-73
2022/04/03 03:35:22;;;;;;;9.00;4.30;;;;;;;-2.13;67.40;99678.99;130595;1266;99169;-72
2022/04/03 03:38:25;;;;;;;8.30;4.30;;;;;;;-2.19;67.13;99680.74;130638;1268;98107;-72
2022/04/03 03:41:28;;;;;;;7.80;4.30;;;;;;;-2.24;67.36;99685.00;130449;1268;97975;-74
2022/04/03 03:44:31;;;;;;;12.00;4.70;;;;;;;-2.27;66.98;99689.55;130492;1268;99148;-73
2022/04/03 03:47:33;;;;;;;15.10;5.30;;;;;;;-2.32;68.01;99694.71;130348;1268;99185;-71
2022/04/03 03:50:36;;;;;;;10.20;4.50;;;;;;;-2.40;68.25;99701.92;130261;1268;97974;-72
2022/04/03 03:53:39;;;;;;;13.40;5.10;;;;;;;-2.42;67.50;99706.58;130285;1268;99144;-72
2022/04/03 03:56:42;;;;;;;10.80;4.90;;;;;;;-2.39;67.38;99705.85;130276;1268;99181;-70
2022/04/03 03:59:45;;;;;;;10.00;4.80;;;;;;;-2.33;67.74;99708.86;130158;1268;97981;-73
2022/04/03 04:02:48;;;;;;;9.90;4.50;;;;;;;-2.31;67.47;99712.09;130535;1267;99162;-72
2022/04/03 04:05:51;;;;;;;7.90;4.60;;;;;;;-2.33;68.08;99720.33;130594;1268;99158;-72
2022/04/03 04:08:53;;;;;;;10.30;4.30;;;;;;;-2.37;68.23;99720.39;130559;1268;97950;-72
2022/04/03 04:11:56;;;;;;;8.70;4.70;;;;;;;-2.41;68.23;99722.15;130494;1268;99175;-75
2022/04/03 04:14:59;;;;;;;8.10;4.60;;;;;;;-2.45;68.86;99721.36;130466;1268;98808;-75
2022/04/03 04:18:01;;;;;;;11.40;5.00;;;;;;;-2.49;68.36;99727.84;130600;1268;97988;-76
2022/04/03 04:21:04;;;;;;;12.00;4.50;;;;;;;-2.50;68.25;99726.34;130710;1268;97962;-74
2022/04/03 04:24:07;;;;;;;9.20;4.30;;;;;;;-2.48;69.11;99730.23;130647;1268;97943;-74
2022/04/03 04:27:11;;;;;;;10.20;4.20;;;;;;;-2.43;68.65;99732.23;130531;1268;97972;-75
2022/04/03 04:30:14;;;;;;;9.40;5.30;;;;;;;-2.37;69.01;99734.35;130638;1268;99284;-74
2022/04/03 04:33:17;;;;;;;9.70;4.40;;;;;;;-2.33;69.02;99739.73;130683;1268;98011;-73
2022/04/03 04:36:20;;;;;;;8.20;4.20;;;;;;;-2.31;68.44;99744.83;130646;1268;98435;-72
2022/04/03 04:39:23;;;;;;;11.20;4.90;;;;;;;-2.31;69.13;99747.60;130557;1268;98778;-71
2022/04/03 04:42:25;;;;;;;8.70;4.30;;;;;;;-2.31;68.89;99752.16;130086;1268;97978;-77
2022/04/03 04:45:28;;;;;;;9.00;4.40;;;;;;;-2.30;68.91;99755.56;130446;1268;99161;-74
2022/04/03 04:48:32;;;;;;;8.80;4.50;;;;;;;-2.26;68.48;99759.33;130470;1268;97985;-75
2022/04/03 04:51:35;;;;;;;8.40;4.70;;;;;;;-2.22;69.41;99761.75;130414;1268;99147;-75
2022/04/03 04:54:38;;;;;;;9.40;4.40;;;;;;;-2.17;68.60;99763.88;130457;1268;98649;-74
2022/04/03 04:57:41;;;;;;;9.80;4.30;;;;;;;-2.08;68.50;99764.45;130473;1268;98066;-71
2022/04/03 05:00:44;;;;;;;9.00;4.60;;;;;;;-1.96;68.66;99767.98;130451;1268;98850;-79
2022/04/03 05:03:46;;;;;;;8.30;4.90;;;;;;;-1.87;68.91;99770.46;130426;1268;99187;-80
2022/04/03 05:06:50;;;;;;;8.20;4.50;;;;;;;-1.79;68.08;99769.82;130567;1268;98077;-74
2022/04/03 05:09:52;;;;;;;8.70;5.00;;;;;;;-1.63;67.80;99778.50;130456;1268;99166;-75
2022/04/03 05:12:55;;;;;;;12.00;6.10;;;;;;;-1.52;67.62;99782.58;130503;1268;97984;-73
2022/04/03 05:15:58;;;;;;;14.20;5.40;;;;;;;-1.48;67.30;99785.16;130581;1268;98582;-69
2022/04/03 05:19:01;;;;;;;11.60;4.90;;;;;;;-1.43;67.27;99791.81;130255;1267;97974;-71
2022/04/03 05:22:05;;;;;;;8.60;5.00;;;;;;;-1.37;67.01;99792.02;130362;1268;98760;-71
2022/04/03 05:25:10;;;;;;;12.40;5.80;;;;;;;-1.33;66.84;99796.86;130272;1268;99168;-71
2022/04/03 05:28:13;;;;;;;9.90;5.10;;;;;;;-1.26;66.52;99798.36;130235;1268;98670;-70
2022/04/03 05:31:17;;;;;;;11.40;4.60;;;;;;;-1.20;66.39;99802.72;130207;1267;98812;-71
2022/04/03 05:34:20;;;;;;;12.80;5.40;;;;;;;-1.12;66.10;99803.66;130368;1268;99043;-67
2022/04/03 05:37:23;;;;;;;7.70;4.90;;;;;;;-1.13;65.35;99806.55;130336;1268;98043;-68
2022/04/03 05:40:26;;;;;;;11.90;5.40;;;;;;;-1.05;65.91;99811.26;130238;1268;98003;-69
2022/04/03 05:43:28;;;;;;;8.40;4.90;;;;;;;-1.00;65.06;99819.02;130400;1268;98026;-67
2022/04/03 05:46:31;;;;;;;9.40;4.90;;;;;;;-1.02;64.78;99820.34;130269;1268;99037;-68
2022/04/03 05:49:34;;;;;;;8.90;5.30;;;;;;;-1.04;64.36;99825.86;130186;1268;99190;-69
2022/04/03 05:52:41;;;;;;;7.80;4.60;;;;;;;-1.05;64.40;99827.85;130240;1266;97985;-71
2022/04/03 05:55:43;;;;;;;15.80;8.20;;;;;;;-1.04;64.17;99832.52;130126;1268;97998;-71
2022/04/03 05:58:46;;;;;;;9.50;5.10;;;;;;;-1.04;64.29;99832.33;130189;1268;97967;-71
2022/04/03 06:01:49;;;;;;;10.60;5.40;;;;;;;-1.01;63.48;99837.61;130647;1268;98657;-73
2022/04/03 06:04:51;;;;;;;11.00;5.50;;;;;;;-1.02;63.46;99839.38;130697;1268;97984;-72
2022/04/03 06:07:54;;;;;;;10.30;5.40;;;;;;;-0.97;63.53;99843.49;130301;1268;98789;-71
2022/04/03 06:10:57;;;;;;;9.90;5.50;;;;;;;-0.90;63.72;99848.61;130339;1268;98834;-72
2022/04/03 06:14:00;;;;;;;16.80;8.80;;;;;;;-0.79;63.61;99851.85;130532;1268;98055;-72
2022/04/03 06:17:04;;;;;;;90.70;37.20;;;;;;;-0.71;62.80;99845.81;130407;1267;99623;-71
2022/04/03 06:20:08;;;;;;;37.40;15.30;;;;;;;-0.69;62.99;99848.64;130291;1267;98123;-73
2022/04/03 06:23:12;;;;;;;56.50;24.90;;;;;;;-0.60;62.60;99851.61;130530;1268;99213;-71
2022/04/03 06:26:15;;;;;;;17.90;9.00;;;;;;;-0.56;62.16;99857.13;130452;1268;98055;-74
2022/04/03 06:29:18;;;;;;;35.20;22.50;;;;;;;-0.47;61.94;99858.65;130451;1268;99230;-72
2022/04/03 06:32:21;;;;;;;21.50;12.60;;;;;;;-0.48;60.87;99859.27;130193;1268;97997;-71
2022/04/03 06:35:23;;;;;;;12.80;7.40;;;;;;;-0.42;61.72;99860.95;130279;1268;97975;-71
2022/04/03 06:38:26;;;;;;;10.30;6.30;;;;;;;-0.37;60.77;99863.50;130568;1268;99172;-71
2022/04/03 06:41:29;;;;;;;11.10;6.10;;;;;;;-0.27;60.92;99860.09;130464;1268;98065;-70
2022/04/03 06:44:32;;;;;;;7.60;4.80;;;;;;;-0.24;59.37;99864.09;130471;1268;98049;-73
2022/04/03 06:47:36;;;;;;;9.10;5.90;;;;;;;-0.24;60.13;99863.71;130756;1267;98035;-78
2022/04/03 06:50:38;;;;;;;9.90;6.60;;;;;;;-0.22;59.42;99867.99;130627;1268;98821;-74
2022/04/03 06:53:41;;;;;;;10.40;5.50;;;;;;;-0.20;59.84;99873.61;130570;1268;98066;-73
2022/04/03 06:56:44;;;;;;;8.30;5.10;;;;;;;-0.13;60.05;99873.73;130569;1266;98096;-77
2022/04/03 06:59:46;;;;;;;9.30;4.70;;;;;;;-0.08;59.86;99873.58;130423;1267;99176;-71
2022/04/03 07:02:51;;;;;;;9.40;5.70;;;;;;;0.03;60.32;99876.08;130826;1267;98501;-70
2022/04/03 07:05:54;;;;;;;8.80;5.10;;;;;;;0.10;59.50;99881.27;131811;1267;97969;-74
2022/04/03 07:08:57;;;;;;;8.70;5.20;;;;;;;0.13;59.66;99881.38;130462;1268;98731;-74
2022/04/03 07:11:59;;;;;;;10.40;6.50;;;;;;;0.18;59.05;99879.66;130455;1268;97962;-74
2022/04/03 07:15:03;;;;;;;10.90;5.60;;;;;;;0.24;59.92;99883.53;130477;1268;99183;-77
2022/04/03 07:18:07;;;;;;;7.80;4.60;;;;;;;0.31;58.78;99888.98;130508;1266;98052;-76
2022/04/03 07:21:10;;;;;;;8.50;5.10;;;;;;;0.30;58.13;99887.84;130588;1267;97963;-72
2022/04/03 07:24:13;;;;;;;8.80;4.60;;;;;;;0.33;58.58;99886.23;130486;1268;98642;-72
2022/04/03 07:27:15;;;;;;;7.60;4.70;;;;;;;0.44;58.61;99888.02;130386;1266;98754;-71
2022/04/03 07:30:18;;;;;;;8.00;4.70;;;;;;;0.58;58.92;99889.56;130240;1268;98682;-71
2022/04/03 07:33:21;;;;;;;109.90;73.00;;;;;;;0.70;58.06;99893.19;130214;1268;98207;-72
2022/04/03 07:36:23;;;;;;;31.00;20.20;;;;;;;0.82;57.30;99895.60;130238;1268;99153;-71
2022/04/03 07:39:26;;;;;;;8.30;5.30;;;;;;;0.90;55.41;99898.94;130554;1268;97990;-72
2022/04/03 07:42:29;;;;;;;6.70;4.50;;;;;;;0.88;54.31;99905.02;131472;1267;99156;-72
2022/04/03 07:45:31;;;;;;;6.90;4.10;;;;;;;0.95;55.67;99901.21;131001;1268;98123;-71
2022/04/03 07:48:34;;;;;;;8.70;5.00;;;;;;;1.07;56.89;99900.75;130082;1266;98040;-71
2022/04/03 07:51:36;;;;;;;17.50;11.10;;;;;;;1.19;56.82;99901.89;130401;1268;98451;-72
2022/04/03 07:54:39;;;;;;;7.70;4.40;;;;;;;1.30;56.13;99904.33;130500;1266;101405;-73
2022/04/03 07:57:43;;;;;;;7.00;4.30;;;;;;;1.33;53.83;99904.98;130546;1268;98004;-75
2022/04/03 08:00:46;;;;;;;7.20;5.00;;;;;;;1.31;54.37;99907.97;130456;1268;98055;-73
2022/04/03 08:03:49;;;;;;;6.20;4.40;;;;;;;1.36;54.83;99908.14;130556;1268;99165;-75
2022/04/03 08:06:52;;;;;;;7.30;4.50;;;;;;;1.43;54.32;99909.27;130625;1268;97970;-76
2022/04/03 08:09:55;;;;;;;6.00;4.30;;;;;;;1.50;54.35;99912.81;130482;1267;99038;-73
2022/04/03 08:12:58;;;;;;;6.10;4.10;;;;;;;1.54;53.46;99918.27;130501;1267;99127;-72
2022/04/03 08:16:01;;;;;;;8.50;4.90;;;;;;;1.61;52.71;99915.02;130462;1268;97965;-72
2022/04/03 08:19:04;;;;;;;6.10;3.80;;;;;;;1.75;53.02;99915.35;130622;1267;99191;-71
2022/04/03 08:22:07;;;;;;;6.50;4.00;;;;;;;1.90;52.87;99920.96;130518;1267;97978;-76
2022/04/03 08:25:10;;;;;;;6.40;3.70;;;;;;;2.02;53.72;99919.08;130488;1268;97995;-73
2022/04/03 08:28:15;;;;;;;6.00;3.70;;;;;;;2.24;53.92;99919.45;130580;1267;97990;-72
2022/04/03 08:31:19;;;;;;;7.80;4.20;;;;;;;2.50;52.87;99919.02;130735;1267;97988;-74
2022/04/03 08:34:21;;;;;;;7.40;4.70;;;;;;;2.63;50.94;99922.67;130440;1268;98001;-71
2022/04/03 08:37:24;;;;;;;8.80;6.00;;;;;;;2.73;49.85;99926.36;130638;1268;98101;-72
2022/04/03 08:40:28;;;;;;;8.50;5.20;;;;;;;2.86;51.20;99916.09;130379;1267;97991;-72
2022/04/03 08:43:32;;;;;;;7.60;4.40;;;;;;;3.12;52.61;99917.67;130587;1268;98259;-74
2022/04/03 08:46:35;;;;;;;6.00;3.90;;;;;;;3.23;49.47;99920.45;130164;1268;98030;-75
2022/04/03 08:49:40;;;;;;;9.30;6.40;;;;;;;3.13;49.54;99927.12;130606;1267;98035;-73
2022/04/03 08:52:46;;;;;;;7.90;4.70;;;;;;;3.16;49.67;99923.73;130656;1268;99115;-75
2022/04/03 08:55:49;;;;;;;6.50;4.20;;;;;;;3.25;49.40;99926.24;130498;1268;98000;-73
2022/04/03 08:58:51;;;;;;;5.10;3.60;;;;;;;3.22;48.98;99930.48;130499;1268;97930;-76
2022/04/03 09:01:54;;;;;;;5.50;4.00;;;;;;;3.11;47.36;99933.05;130486;1268;97982;-75
2022/04/03 09:04:57;;;;;;;6.00;4.10;;;;;;;3.11;49.06;99936.27;130527;1268;99143;-75
2022/04/03 09:08:01;;;;;;;5.10;3.40;;;;;;;3.22;48.35;99935.45;130555;1268;97993;-74
2022/04/03 09:11:05;;;;;;;7.90;5.00;;;;;;;3.30;49.30;99932.70;130551;1268;97988;-72
2022/04/03 09:14:14;;;;;;;5.80;3.90;;;;;;;3.42;50.26;99931.33;130318;1268;98636;-73
2022/04/03 09:17:34;;;;;;;8.80;5.50;;;;;;;3.51;48.92;99926.21;130352;1268;98265;-71
2022/04/03 09:20:37;;;;;;;6.30;4.30;;;;;;;3.53;48.43;99928.84;130463;1268;97968;-70
2022/04/03 09:23:58;;;;;;;6.50;3.70;;;;;;;3.63;48.50;99927.11;130218;1268;99187;-71
2022/04/03 09:27:03;;;;;;;5.10;3.40;;;;;;;3.89;49.36;99927.02;130349;1268;98053;-74
2022/04/03 09:30:08;;;;;;;5.50;3.30;;;;;;;4.32;49.45;99925.64;130563;1268;97994;-72
2022/04/03 09:33:15;;;;;;;5.40;3.70;;;;;;;4.56;48.03;99928.29;130567;1268;97992;-73
2022/04/03 09:36:19;;;;;;;38.40;19.80;;;;;;;4.46;47.82;99938.24;130354;1268;99139;-70
2022/04/03 09:39:24;;;;;;;21.90;13.30;;;;;;;4.06;47.26;99939.60;130450;1268;99038;-74
2022/04/03 09:42:28;;;;;;;8.70;5.10;;;;;;;3.91;47.95;99947.98;130402;1267;97989;-73
2022/04/03 09:45:31;;;;;;;8.60;5.60;;;;;;;3.78;46.90;99952.55;130524;1268;98107;-71
2022/04/03 09:48:36;;;;;;;9.00;6.40;;;;;;;3.76;48.10;99948.44;130174;1267;98985;-70
2022/04/03 09:51:38;;;;;;;7.30;5.10;;;;;;;3.91;48.54;99949.42;130364;1268;97968;-71
2022/04/03 09:54:46;;;;;;;7.50;4.40;;;;;;;4.09;49.13;99949.58;130314;1268;99144;-73
2022/04/03 09:58:00;;;;;;;5.80;4.30;;;;;;;4.28;47.72;99950.58;130048;1268;98074;-71
2022/04/03 10:01:21;;;;;;;6.20;4.50;;;;;;;4.29;46.83;99955.76;130277;1267;97969;-71
2022/04/03 10:04:24;;;;;;;7.30;4.30;;;;;;;4.25;46.51;99954.38;130243;1268;97968;-69
2022/04/03 10:07:29;;;;;;;7.10;4.50;;;;;;;4.20;46.78;99950.55;130211;1268;98670;-75
2022/04/03 10:10:34;;;;;;;8.90;5.70;;;;;;;4.27;47.21;99958.02;130568;1268;97987;-71
2022/04/03 10:13:38;;;;;;;8.00;5.10;;;;;;;4.40;46.18;99956.21;130674;1267;98088;-72
2022/04/03 10:16:42;;;;;;;7.80;4.60;;;;;;;4.29;44.83;99958.59;130646;1267;99180;-73
2022/04/03 10:19:45;;;;;;;7.50;5.40;;;;;;;4.35;46.75;99956.42;130658;1266;98613;-71
2022/04/03 10:22:56;;;;;;;7.50;5.50;;;;;;;4.47;46.34;99948.02;130347;1268;97960;-73
2022/04/03 10:25:59;;;;;;;6.60;4.60;;;;;;;4.45;45.53;99956.45;130508;1267;99156;-73
2022/04/03 10:29:06;;;;;;;6.20;4.20;;;;;;;4.37;46.64;99953.05;130597;1268;99148;-71
2022/04/03 10:32:21;;;;;;;10.80;5.40;;;;;;;4.23;45.57;99961.15;130399;1267;97925;-72
2022/04/03 10:35:24;;;;;;;7.00;4.80;;;;;;;4.05;46.16;99958.70;130636;1267;99152;-70
2022/04/03 10:38:35;;;;;;;7.40;4.70;;;;;;;4.01;44.82;99963.80;130502;1268;97998;-70
2022/04/03 10:41:40;;;;;;;7.20;5.20;;;;;;;4.20;46.76;99958.47;130625;1267;97984;-70
2022/04/03 10:45:04;;;;;;;6.70;4.90;;;;;;;4.53;45.10;99960.46;130422;1268;97995;-75
2022/04/03 10:48:30;;;;;;;7.20;4.40;;;;;;;4.43;44.43;99959.67;130704;1266;97981;-74
2022/04/03 10:51:34;;;;;;;9.60;5.90;;;;;;;4.26;45.68;99960.42;130619;1267;98078;-72
2022/04/03 10:54:45;;;;;;;10.70;7.30;;;;;;;4.09;44.65;99960.50;130455;1268;99171;-72
2022/04/03 10:57:49;;;;;;;9.90;6.30;;;;;;;3.97;45.22;99969.52;130509;1267;99038;-74
2022/04/03 11:04:22;;;;;;;10.90;6.30;;;;;;;4.02;45.25;99965.14;129925;1274;98014;-73
2022/04/03 11:07:25;;;;;;;6.70;4.60;;;;;;;4.42;45.60;99958.61;128690;1286;97985;-79
2022/04/03 11:10:46;;;;;;;6.70;4.20;;;;;;;4.51;44.60;99959.91;128696;1287;99052;-71
2022/04/03 11:13:48;;;;;;;13.10;7.70;;;;;;;4.49;45.21;99958.27;127976;1287;98110;-74
2022/04/03 11:16:53;;;;;;;87.70;50.60;;;;;;;4.64;45.27;99963.04;128580;1287;98102;-74
2022/04/03 11:19:59;;;;;;;12.90;9.00;;;;;;;4.77;46.12;99961.20;128369;1287;98015;-74
2022/04/03 11:23:03;;;;;;;14.00;8.80;;;;;;;4.83;45.79;99959.45;128271;1287;99118;-72
2022/04/03 11:26:06;;;;;;;12.50;7.90;;;;;;;4.75;44.49;99961.53;128292;1287;99181;-71
2022/04/03 11:29:11;;;;;;;13.40;8.50;;;;;;;4.73;45.35;99961.48;128119;1287;99221;-72
2022/04/03 11:32:16;;;;;;;12.50;7.40;;;;;;;4.74;44.35;99967.41;128100;1287;98792;-72
2022/04/03 11:35:33;;;;;;;7.90;4.50;;;;;;;4.49;44.15;99966.39;128438;1287;98106;-70
2022/04/03 11:38:39;;;;;;;17.10;9.60;;;;;;;4.31;44.62;99963.59;128356;1287;98021;-73
2022/04/03 11:41:46;;;;;;;7.80;4.90;;;;;;;4.33;45.25;99961.78;128402;1287;98788;-74
2022/04/03 11:44:53;;;;;;;13.70;7.40;;;;;;;4.47;45.39;99959.63;128271;1287;99185;-72
2022/04/03 11:48:13;;;;;;;7.40;5.00;;;;;;;4.47;44.50;99959.16;128270;1287;99182;-72
2022/04/03 11:51:19;;;;;;;9.60;5.10;;;;;;;4.44;43.17;99956.91;128307;1287;98147;-76
2022/04/03 11:54:21;;;;;;;38.30;19.00;;;;;;;4.39;44.56;99958.17;128226;1287;99108;-73
2022/04/03 11:57:24;;;;;;;24.80;11.40;;;;;;;4.42;43.34;99955.49;128120;1287;99194;-72
2022/04/03 12:00:27;;;;;;;11.60;7.10;;;;;;;4.46;44.78;99953.80;128067;1287;98636;-71
2022/04/03 12:03:30;;;;;;;11.80;6.40;;;;;;;4.44;43.17;99953.77;128076;1287;98824;-71
2022/04/03 12:06:33;;;;;;;15.10;9.00;;;;;;;4.34;43.33;99952.07;128206;1287;99178;-72
2022/04/03 12:09:37;;;;;;;10.70;6.60;;;;;;;4.27;44.11;99953.66;128140;1287;98839;-72
2022/04/03 12:12:40;;;;;;;9.60;6.40;;;;;;;4.28;43.88;99950.24;128137;1287;98041;-72
2022/04/03 12:15:44;;;;;;;8.80;6.40;;;;;;;4.35;44.41;99945.27;128266;1288;98798;-73
2022/04/03 12:18:54;;;;;;;13.60;6.90;;;;;;;4.43;43.36;99948.39;128457;1287;98025;-73
2022/04/03 12:22:00;;;;;;;9.90;6.60;;;;;;;4.44;42.78;99949.13;128362;1288;98787;-72
2022/04/03 12:25:05;;;;;;;8.00;5.20;;;;;;;4.50;43.71;99943.27;128290;1288;99305;-73
2022/04/03 12:28:08;;;;;;;11.60;6.70;;;;;;;4.62;43.26;99941.03;128176;1288;98141;-71
2022/04/03 12:31:14;;;;;;;10.10;5.80;;;;;;;4.69;43.05;99934.84;127841;1287;98177;-71
2022/04/03 12:34:17;;;;;;;12.40;6.40;;;;;;;4.59;42.56;99936.14;128053;1288;98119;-71
2022/04/03 12:37:20;;;;;;;7.30;5.50;;;;;;;4.57;42.40;99944.30;128094;1288;98817;-72
2022/04/03 12:40:23;;;;;;;10.90;5.40;;;;;;;4.61;42.93;99935.46;127823;1288;98103;-72
2022/04/03 12:43:26;;;;;;;23.20;12.50;;;;;;;4.62;41.62;99928.17;128377;1288;98021;-72
2022/04/03 12:46:37;;;;;;;5.40;3.80;;;;;;;4.58;43.05;99931.48;128306;1288;99017;-71
2022/04/03 12:49:44;;;;;;;13.80;8.10;;;;;;;4.50;42.18;99935.98;128053;1288;98023;-71
2022/04/03 12:52:53;;;;;;;52.40;25.00;;;;;;;4.37;42.24;99934.42;128045;1288;98601;-71
2022/04/03 12:55:57;;;;;;;17.80;8.40;;;;;;;4.29;42.77;99937.96;127990;1288;99163;-72
2022/04/03 12:59:01;;;;;;;7.10;4.70;;;;;;;4.22;41.27;99931.67;128085;1288;98048;-71
2022/04/03 13:02:06;;;;;;;10.20;6.00;;;;;;;4.10;41.74;99934.55;128280;1287;98031;-75
2022/04/03 13:05:14;;;;;;;4.90;3.70;;;;;;;4.08;42.22;99925.06;128305;1288;99229;-76
2022/04/03 13:08:17;;;;;;;6.70;4.90;;;;;;;4.21;42.83;99916.41;128509;1287;98565;-75
2022/04/03 13:11:28;;;;;;;9.20;5.70;;;;;;;4.37;42.42;99911.16;128511;1287;98100;-71
2022/04/03 13:14:35;;;;;;;8.20;4.50;;;;;;;4.67;43.15;99911.27;128664;1287;98025;-73
2022/04/03 13:17:38;;;;;;;7.30;4.70;;;;;;;4.98;42.33;99905.55;128442;1287;98015;-73
2022/04/03 13:20:47;;;;;;;10.20;5.50;;;;;;;5.24;43.41;99897.73;128386;1287;99209;-74
2022/04/03 13:23:50;;;;;;;24.00;9.90;;;;;;;5.49;42.80;99896.03;128572;1286;98011;-74
2022/04/03 13:26:53;;;;;;;179.40;63.00;;;;;;;5.55;40.94;99891.83;128284;1287;98039;-74
2022/04/03 13:29:57;;;;;;;59.60;21.00;;;;;;;5.41;42.11;99891.42;128421;1286;98807;-73
2022/04/03 13:33:00;;;;;;;21.30;10.40;;;;;;;5.35;41.75;99898.39;128342;1287;98088;-70
2022/04/03 13:36:03;;;;;;;15.40;8.70;;;;;;;5.22;40.45;99900.02;128227;1287;99197;-70
2022/04/03 13:39:07;;;;;;;9.70;6.30;;;;;;;5.17;40.32;99897.66;128339;1287;98223;-71
2022/04/03 13:42:13;;;;;;;17.00;9.90;;;;;;;5.10;40.26;99892.92;128270;1287;98131;-72
2022/04/03 13:45:56;;;;;;;14.80;8.50;;;;;;;5.17;40.67;99893.59;129356;1287;99223;-76
2022/04/03 13:48:45;;;;;;;40.00;20.40;;;;;;;5.35;41.14;99891.51;129070;1287;97997;-77
2022/04/03 13:51:50;;;;;;;24.30;11.00;;;;;;;5.46;39.60;99890.42;128548;1287;98682;-79
2022/04/03 13:54:53;;;;;;;155.60;63.40;;;;;;;5.63;41.79;99880.96;128888;1287;98000;-73
2022/04/03 13:57:56;;;;;;;27.40;14.50;;;;;;;5.84;41.29;99874.85;128269;1287;98029;-74
2022/04/03 14:01:00;;;;;;;12.90;7.80;;;;;;;5.77;39.48;99883.58;128272;1287;99136;-74
2022/04/03 14:04:03;;;;;;;23.60;13.00;;;;;;;5.46;38.44;99889.55;128296;1287;98020;-74
2022/04/03 14:07:06;;;;;;;14.10;7.90;;;;;;;5.26;39.00;99885.57;129191;1287;98036;-74
2022/04/03 14:10:09;;;;;;;17.10;8.10;;;;;;;5.05;39.55;99888.07;128414;1286;98474;-74
2022/04/03 14:13:13;;;;;;;6.90;4.40;;;;;;;4.90;39.68;99890.13;128805;1287;98001;-73
2022/04/03 14:16:16;;;;;;;6.60;4.40;;;;;;;4.85;40.77;99886.16;128538;1287;98118;-73
2022/04/03 14:19:18;;;;;;;25.60;12.10;;;;;;;4.87;41.19;99889.84;128305;1287;98106;-73
2022/04/03 14:22:23;;;;;;;8.30;4.80;;;;;;;4.86;40.87;99886.24;128712;1287;98374;-72